This is the latest recevied weather packets stored in our database for station/object SP6KBU-8. If no packets are shown the sender has not sent any weather packets the latest 10 day(s).
| Time | Temp. | Humidity | Pressure | Rain* | Wind** | Luminosity | Snow |
|---|---|---|---|---|---|---|---|
| 1777558229 | 18.89° C | 23% | 1030.8 hPa | - | - | - | - |
| 1777557330 | 19.44° C | 21% | 1030.8 hPa | - | - | - | - |
| 1777556431 | 20° C | 21% | 1030.9 hPa | - | - | - | - |
| 1777555531 | 19.44° C | 22% | 1031 hPa | - | - | - | - |
| 1777554634 | 19.44° C | 21% | 1031.1 hPa | - | - | - | - |
| 1777553735 | 18.33° C | 21% | 1031.3 hPa | - | - | - | - |
| 1777552836 | 18.89° C | 21% | 1031.6 hPa | - | - | - | - |
| 1777551936 | 19.44° C | 21% | 1031.5 hPa | - | - | - | - |
| 1777550137 | 17.78° C | 22% | 1032 hPa | - | - | - | - |
| 1777549239 | 20° C | 20% | 1031.8 hPa | - | - | - | - |
| 1777548340 | 17.78° C | 22% | 1031.8 hPa | - | - | - | - |
| 1777547442 | 18.33° C | 20% | 1032 hPa | - | - | - | - |
| 1777546542 | 16.67° C | 23% | 1032 hPa | - | - | - | - |
| 1777545641 | 15.56° C | 23% | 1032.3 hPa | - | - | - | - |
| 1777544743 | 16.67° C | 23% | 1032.3 hPa | - | - | - | - |
| 1777543842 | 15.56° C | 23% | 1032.6 hPa | - | - | - | - |
| 1777542942 | 15° C | 23% | 1032.8 hPa | - | - | - | - |
| 1777542043 | 15.56° C | 23% | 1032.8 hPa | - | - | - | - |
| 1777541145 | 15° C | 23% | 1032.9 hPa | - | - | - | - |
| 1777540245 | 13.33° C | 25% | 1033 hPa | - | - | - | - |
| 1777539345 | 12.78° C | 26% | 1033.2 hPa | - | - | - | - |
| 1777538446 | 12.78° C | 26% | 1033.3 hPa | - | - | - | - |
| 1777537547 | 12.22° C | 26% | 1033.3 hPa | - | - | - | - |
| 1777536646 | 12.22° C | 27% | 1033.2 hPa | - | - | - | - |
| 1777535747 | 12.22° C | 29% | 1033.2 hPa | - | - | - | - |
* Rain since midnight (hover to see other rain measurements)
** Current wind speed in m/s (hover to see current wind gust speed)